createdAt,value
2022-11-25T00:03:38.906Z,100601.39
2022-11-25T00:08:47.069Z,100599.65
2022-11-25T00:13:53.057Z,100600.52
2022-11-25T00:18:59.343Z,100601.36
2022-11-25T00:24:07.187Z,100606.71
2022-11-25T00:29:14.523Z,100607.26
2022-11-25T00:34:20.225Z,100615.55
2022-11-25T00:39:27.256Z,100625.90
2022-11-25T00:44:36.255Z,100623.95
2022-11-25T00:49:44.325Z,100627.27
2022-11-25T00:54:51.156Z,100627.33
2022-11-25T00:59:57.066Z,100630.64
2022-11-25T01:05:03.112Z,100631.80
2022-11-25T01:10:10.456Z,100630.18
2022-11-25T01:15:17.480Z,100631.30
2022-11-25T01:20:23.290Z,100631.83
2022-11-25T01:25:29.159Z,100636.05
2022-11-25T01:30:40.955Z,100641.80
2022-11-25T01:35:48.089Z,100648.66
2022-11-25T01:40:53.941Z,100650.06
2022-11-25T01:46:05.698Z,100652.75
2022-11-25T01:51:23.076Z,100649.70
2022-11-25T01:56:33.121Z,100644.59
2022-11-25T02:01:39.169Z,100649.86
2022-11-25T02:06:50.903Z,100650.20
2022-11-25T02:12:01.217Z,100656.08
2022-11-25T02:17:08.969Z,100653.38
2022-11-25T02:22:25.883Z,100663.09
2022-11-25T02:27:31.909Z,100659.61
2022-11-25T02:32:42.474Z,100655.58
2022-11-25T02:37:48.300Z,100655.59
2022-11-25T02:42:56.497Z,100653.69
2022-11-25T02:48:02.485Z,100653.71
2022-11-25T02:53:08.717Z,100658.69
2022-11-25T02:58:15.888Z,100663.70
2022-11-25T03:03:21.648Z,100661.50
2022-11-25T03:08:27.430Z,100663.34
2022-11-25T03:13:33.758Z,100667.66
2022-11-25T03:18:39.843Z,100667.48
2022-11-25T03:23:45.523Z,100664.30
2022-11-25T03:28:51.344Z,100668.23
2022-11-25T03:33:58.298Z,100663.23
2022-11-25T03:39:04.452Z,100667.95
2022-11-25T03:44:12.290Z,100680.98
2022-11-25T03:49:18.518Z,100684.12
2022-11-25T03:54:24.345Z,100685.44
2022-11-25T03:59:52.920Z,100688.59
2022-11-25T04:04:58.707Z,100690.86
2022-11-25T04:10:05.644Z,100692.71
2022-11-25T04:15:12.799Z,100703.13
2022-11-25T04:20:19.097Z,100705.19
2022-11-25T04:25:30.568Z,100708.41
2022-11-25T04:30:37.455Z,100712.63
2022-11-25T04:35:43.416Z,100712.65
2022-11-25T04:40:49.983Z,100713.65
2022-11-25T04:46:13.663Z,100723.71
2022-11-25T04:51:21.808Z,100731.60
2022-11-25T04:56:30.063Z,100732.98
2022-11-25T05:01:36.175Z,100732.73
2022-11-25T05:06:56.626Z,100741.41
2022-11-25T05:12:03.620Z,100742.90
2022-11-25T05:17:15.150Z,100745.11
2022-11-25T05:22:20.825Z,100752.08
2022-11-25T05:27:28.184Z,100755.46
2022-11-25T05:32:34.381Z,100756.49
2022-11-25T05:37:45.005Z,100758.06
2022-11-25T05:42:51.779Z,100758.16
2022-11-25T05:47:58.259Z,100761.34
2022-11-25T05:53:05.993Z,100763.82
2022-11-25T05:58:13.307Z,100767.64
2022-11-25T06:03:20.149Z,100765.86
2022-11-25T06:08:26.541Z,100773.63
2022-11-25T06:13:32.655Z,100775.52
2022-11-25T06:18:39.221Z,100778.77
2022-11-25T06:23:47.761Z,100782.60
2022-11-25T06:28:56.993Z,100787.59
2022-11-25T06:34:03.602Z,100787.09
2022-11-25T06:39:10.066Z,100783.66
2022-11-25T06:44:16.298Z,100786.17
2022-11-25T06:49:22.033Z,100787.05
2022-11-25T06:54:27.815Z,100791.11
2022-11-25T06:59:34.016Z,100793.26
2022-11-25T07:04:40.462Z,100804.69
2022-11-25T07:09:47.579Z,100802.56
2022-11-25T07:14:53.450Z,100806.08
2022-11-25T07:19:59.451Z,100807.57
2022-11-25T07:25:05.906Z,100808.35
2022-11-25T07:31:09.860Z,100814.80
2022-11-25T07:35:38.723Z,100816.23
2022-11-25T07:40:44.489Z,100821.91
2022-11-25T07:45:50.945Z,100823.43
2022-11-25T07:50:56.829Z,100818.64
2022-11-25T07:56:03.863Z,100821.14
2022-11-25T08:01:12.116Z,100822.23
2022-11-25T08:06:19.533Z,100823.98
2022-11-25T08:11:27.538Z,100823.98
2022-11-25T08:16:33.638Z,100831.45
2022-11-25T08:21:39.555Z,100837.71
2022-11-25T08:26:48.620Z,100842.84
2022-11-25T08:31:54.441Z,100836.48
2022-11-25T08:37:00.135Z,100841.77
2022-11-25T08:42:06.845Z,100850.14
2022-11-25T08:47:13.184Z,100852.00
2022-11-25T08:52:19.701Z,100857.20
2022-11-25T08:57:25.560Z,100862.27
2022-11-25T09:02:31.536Z,100865.30
2022-11-25T09:07:37.709Z,100867.73
2022-11-25T09:12:43.531Z,100869.45
2022-11-25T09:17:49.381Z,100870.14
2022-11-25T09:22:55.327Z,100867.73
2022-11-25T09:28:01.214Z,100868.06
2022-11-25T09:33:07.288Z,100871.44
2022-11-25T09:38:13.262Z,100873.91
2022-11-25T09:43:52.190Z,100872.13
2022-11-25T09:49:06.017Z,100874.81
2022-11-25T09:54:21.399Z,100876.89
2022-11-25T09:59:36.195Z,100876.96
2022-11-25T10:04:47.845Z,100885.03
2022-11-25T10:09:54.721Z,100889.33
2022-11-25T10:15:04.872Z,100887.34
2022-11-25T10:20:17.287Z,100885.95
2022-11-25T10:25:26.184Z,100893.69
2022-11-25T10:30:38.283Z,100893.61
2022-11-25T10:35:50.689Z,100896.64
2022-11-25T10:40:57.379Z,100896.69
2022-11-25T10:46:11.645Z,100899.95
2022-11-25T10:51:36.112Z,100909.11
2022-11-25T10:57:02.473Z,100909.20
2022-11-25T11:02:21.248Z,100905.42
2022-11-25T11:07:29.464Z,100908.38
2022-11-25T11:12:35.373Z,100909.26
2022-11-25T11:17:41.674Z,100911.27
2022-11-25T11:22:52.146Z,100908.53
2022-11-25T11:27:58.996Z,100909.16
2022-11-25T11:33:06.906Z,100907.00
2022-11-25T11:38:26.289Z,100909.23
2022-11-25T11:43:49.143Z,100911.05
2022-11-25T11:49:05.684Z,100910.70
2022-11-25T11:54:16.349Z,100912.69
2022-11-25T11:59:53.527Z,100915.64
2022-11-25T12:05:12.845Z,100918.52
2022-11-25T12:10:25.785Z,100915.91
2022-11-25T12:15:39.458Z,100913.63
2022-11-25T12:20:52.145Z,100916.15
2022-11-25T12:26:02.898Z,100916.34
2022-11-25T12:31:17.057Z,100912.20
2022-11-25T12:36:32.121Z,100913.56
2022-11-25T12:41:43.842Z,100918.15
2022-11-25T12:46:53.070Z,100921.02
2022-11-25T12:52:25.194Z,100916.58
2022-11-25T12:58:08.053Z,100918.15
2022-11-25T13:03:49.202Z,100919.23
2022-11-25T13:09:03.865Z,100922.36
2022-11-25T13:14:24.847Z,100924.42
2022-11-25T13:19:36.879Z,100924.77
2022-11-25T13:24:43.636Z,100922.61
2022-11-25T13:29:57.481Z,100923.54
2022-11-25T13:35:31.219Z,100925.41
2022-11-25T13:40:40.622Z,100931.77
2022-11-25T13:45:47.284Z,100934.39
2022-11-25T13:51:12.193Z,100941.11
2022-11-25T13:56:28.672Z,100947.08
2022-11-25T14:01:34.709Z,100948.48
2022-11-25T14:07:12.492Z,100954.03
2022-11-25T14:12:42.075Z,100957.27
2022-11-25T14:18:44.459Z,100958.33
2022-11-25T14:24:11.514Z,100963.77
2022-11-25T14:29:23.985Z,100966.79
2022-11-25T14:34:33.556Z,100967.83
2022-11-25T14:39:46.635Z,100964.58
2022-11-25T14:45:02.468Z,100973.91
2022-11-25T14:55:41.626Z,100981.73
2022-11-25T15:00:59.565Z,100982.06
2022-11-25T15:06:07.264Z,100985.45
2022-11-25T15:11:16.861Z,100986.69
2022-11-25T15:16:26.273Z,100989.83
2022-11-25T15:21:53.891Z,100998.34
2022-11-25T15:27:03.727Z,100998.46
2022-11-25T15:32:15.316Z,101002.33
2022-11-25T15:37:26.327Z,101005.14
2022-11-25T15:42:35.733Z,101005.98
2022-11-25T15:47:46.864Z,101006.95
2022-11-25T15:53:00.498Z,101009.47
2022-11-25T15:58:12.810Z,101011.08
2022-11-25T16:08:30.441Z,101011.88
2022-11-25T16:13:39.598Z,101013.02
2022-11-25T16:18:55.519Z,101008.71
2022-11-25T16:24:24.427Z,101000.18
2022-11-25T16:29:35.088Z,101002.81
2022-11-25T16:34:41.473Z,101006.23
2022-11-25T16:39:47.569Z,101007.86
2022-11-25T16:44:54.095Z,101010.08
2022-11-25T16:50:00.401Z,101007.95
2022-11-25T16:55:07.575Z,101009.94
2022-11-25T17:00:17.144Z,101012.16
2022-11-25T17:05:25.566Z,101016.54
2022-11-25T17:10:31.633Z,101020.89
2022-11-25T17:15:38.263Z,101023.58
2022-11-25T17:20:44.812Z,101023.55
2022-11-25T17:25:51.682Z,101032.00
2022-11-25T17:30:57.449Z,101037.34
2022-11-25T17:36:03.475Z,101040.42
2022-11-25T17:41:13.618Z,101038.78
2022-11-25T17:46:19.937Z,101034.02
2022-11-25T17:51:26.553Z,101032.70
2022-11-25T17:56:32.525Z,101037.01
2022-11-25T18:01:38.280Z,101038.66
2022-11-25T18:06:45.395Z,101037.80
2022-11-25T18:11:53.717Z,101035.11
2022-11-25T18:17:02.596Z,101037.22
2022-11-25T18:22:15.899Z,101040.45
2022-11-25T18:27:24.818Z,101045.99
2022-11-25T18:32:30.877Z,101048.46
2022-11-25T18:37:36.750Z,101054.23
2022-11-25T18:42:45.166Z,101053.45
2022-11-25T18:47:51.250Z,101051.95
2022-11-25T18:52:58.518Z,101061.19
2022-11-25T18:58:09.570Z,101062.70
2022-11-25T19:03:16.992Z,101061.10
2022-11-25T19:08:23.706Z,101059.80
2022-11-25T19:13:34.239Z,101061.58
2022-11-25T19:18:40.645Z,101069.32
2022-11-25T19:23:46.813Z,101071.27
2022-11-25T19:29:04.769Z,101076.77
2022-11-25T19:34:30.200Z,101083.23
2022-11-25T19:39:37.538Z,101088.70
2022-11-25T19:44:44.552Z,101087.02
2022-11-25T19:49:53.147Z,101089.66
2022-11-25T19:54:59.576Z,101096.23
2022-11-25T20:00:07.924Z,101105.54
2022-11-25T20:05:20.973Z,101114.34
2022-11-25T20:10:29.128Z,101119.73
2022-11-25T20:15:35.027Z,101123.37
2022-11-25T20:20:43.117Z,101126.13
2022-11-25T20:25:50.999Z,101129.70
2022-11-25T20:31:00.070Z,101129.87
2022-11-25T20:36:12.106Z,101132.61
2022-11-25T20:41:22.944Z,101135.44
2022-11-25T20:46:32.189Z,101136.53
2022-11-25T20:51:38.104Z,101141.52
2022-11-25T20:56:44.332Z,101146.20
2022-11-25T21:01:50.890Z,101147.36
2022-11-25T21:06:56.751Z,101148.78
2022-11-25T21:12:03.462Z,101150.35
2022-11-25T21:17:09.237Z,101155.39
2022-11-25T21:22:16.113Z,101151.14
2022-11-25T21:27:22.092Z,101149.60
2022-11-25T21:32:29.044Z,101149.93
2022-11-25T21:37:36.455Z,101153.57
2022-11-25T21:42:42.318Z,101157.39
2022-11-25T21:47:49.032Z,101158.23
2022-11-25T21:52:54.702Z,101156.44
2022-11-25T21:58:00.451Z,101158.94
2022-11-25T22:03:09.554Z,101156.44
2022-11-25T22:08:15.475Z,101160.27
2022-11-25T22:13:29.557Z,101162.33
2022-11-25T22:18:36.728Z,101162.75
2022-11-25T22:23:43.410Z,101165.38
2022-11-25T22:28:53.094Z,101179.92
2022-11-25T22:33:58.937Z,101186.31
2022-11-25T22:39:14.892Z,101187.30
2022-11-25T22:44:24.731Z,101188.74
2022-11-25T22:49:38.984Z,101189.31
2022-11-25T22:54:45.767Z,101196.73
2022-11-25T22:59:51.373Z,101198.42
2022-11-25T23:04:57.547Z,101201.30
2022-11-25T23:10:06.387Z,101202.58
2022-11-25T23:15:16.700Z,101200.14
2022-11-25T23:20:26.446Z,101203.34
2022-11-25T23:25:32.266Z,101204.59
2022-11-25T23:30:38.524Z,101208.96
2022-11-25T23:35:44.577Z,101215.83
2022-11-25T23:40:50.280Z,101216.40
2022-11-25T23:45:57.415Z,101215.25
2022-11-25T23:51:03.450Z,101215.59
2022-11-25T23:56:09.473Z,101219.75
